createdAt,value
2019-05-10T11:18:53.114Z,22.72
2019-05-10T11:19:41.814Z,22.68
2019-05-10T11:28:44.201Z,22.20
2019-05-10T11:29:42.778Z,21.98
2019-05-10T11:31:14.970Z,21.68
2019-05-10T11:32:16.783Z,21.47
2019-05-10T11:33:53.614Z,21.43
2019-05-10T11:34:49.135Z,21.24
2019-05-10T11:36:21.142Z,21.10
2019-05-10T11:37:30.876Z,21.10
2019-05-10T11:38:58.578Z,21.07
2019-05-10T11:39:53.636Z,21.10
2019-05-10T11:41:24.720Z,20.97
2019-05-10T11:42:24.415Z,20.98
2019-05-10T11:43:57.941Z,21.04
2019-05-10T11:44:57.353Z,21.06
2019-05-10T11:46:28.943Z,21.25
2019-05-10T11:47:28.069Z,21.25
2019-05-10T11:49:01.750Z,21.40
2019-05-10T11:50:06.073Z,21.49
2019-05-10T11:51:32.698Z,21.49
2019-05-10T11:52:34.813Z,21.35
2019-05-10T11:54:05.464Z,21.31
2019-05-10T11:55:05.423Z,21.28
2019-05-10T11:56:37.221Z,21.12
2019-05-10T11:57:43.599Z,21.04
2019-05-10T11:59:15.917Z,20.85
2019-05-10T12:01:42.787Z,20.74
2019-05-10T12:03:01.501Z,20.59
2019-05-10T12:04:24.046Z,20.39
2019-05-10T12:05:20.503Z,20.43
2019-05-10T12:06:16.511Z,20.38
2019-05-10T12:07:15.504Z,20.24
2019-05-10T12:08:15.495Z,20.32
2019-05-10T12:09:15.488Z,20.38
2019-05-10T12:10:20.980Z,20.41
2019-05-10T12:11:27.481Z,20.50
2019-05-10T12:12:16.447Z,20.59
2019-05-10T12:13:19.858Z,20.59
2019-05-10T12:14:16.431Z,20.43
2019-05-10T12:15:15.411Z,20.38
2019-05-10T12:16:16.864Z,20.43
2019-05-10T12:17:15.407Z,20.47
2019-05-10T12:18:15.408Z,20.42
2019-05-10T12:19:20.724Z,20.38
2019-05-10T12:20:16.833Z,20.47
2019-05-10T12:21:15.350Z,20.33
2019-05-10T12:22:16.094Z,20.20
2019-05-10T12:23:22.798Z,19.87
2019-05-10T12:24:33.965Z,19.66
2019-05-10T12:25:36.001Z,19.41
2019-05-10T12:25:59.686Z,20.84
2019-05-10T12:27:14.028Z,19.16
2019-05-10T12:27:24.768Z,18.92
2019-05-10T12:28:24.070Z,18.84
2019-05-10T12:29:17.298Z,18.73
2019-05-10T12:30:16.030Z,18.65
2019-05-10T12:31:16.884Z,18.62
2019-05-10T12:32:15.225Z,18.58
2019-05-10T12:33:23.873Z,18.54
2019-05-10T12:34:16.212Z,18.47
2019-05-10T12:35:15.194Z,18.41
2019-05-10T12:36:23.619Z,18.37
2019-05-10T12:37:16.185Z,18.45
2019-05-10T12:38:15.175Z,18.36
2019-05-10T12:39:15.145Z,18.25
2019-05-10T12:40:15.552Z,18.14
2019-05-10T12:41:15.126Z,18.03
2019-05-10T12:42:15.113Z,17.93
2019-05-10T12:43:15.107Z,17.75
2019-05-10T12:44:15.090Z,17.56
2019-05-10T12:45:15.085Z,17.52
2019-05-10T12:46:15.064Z,17.41
2019-05-10T12:47:15.068Z,17.33
2019-05-10T12:48:15.178Z,17.36
2019-05-10T12:49:15.034Z,17.33
2019-05-10T12:50:15.028Z,17.31
2019-05-10T12:51:16.220Z,17.25
2019-05-10T12:52:16.230Z,17.25
2019-05-10T12:53:18.358Z,17.37
2019-05-10T12:54:18.419Z,17.36
2019-05-10T12:55:15.964Z,17.36
2019-05-10T12:56:15.027Z,17.40
2019-05-10T12:57:15.027Z,17.40
2019-05-10T12:58:14.960Z,17.38
2019-05-10T12:59:14.931Z,17.40
2019-05-10T13:00:15.935Z,17.25
2019-05-10T13:01:14.992Z,17.37
2019-05-10T13:02:14.891Z,17.44
2019-05-10T13:03:14.878Z,17.49
2019-05-10T13:04:17.023Z,17.54
2019-05-10T13:05:15.770Z,17.68
2019-05-10T13:06:14.847Z,17.71
2019-05-10T13:07:14.840Z,17.82
2019-05-10T13:08:14.828Z,17.87
2019-05-10T13:09:14.961Z,17.93
2019-05-10T13:10:14.865Z,18.07
2019-05-10T13:11:19.194Z,18.11
2019-05-10T13:12:15.783Z,18.12
2019-05-10T13:13:17.661Z,18.18
2019-05-10T13:14:15.756Z,18.23
2019-05-10T13:15:14.772Z,18.20
2019-05-10T13:16:14.751Z,18.25
2019-05-10T13:17:17.021Z,18.26
2019-05-10T13:18:14.737Z,18.21
2019-05-10T13:19:20.167Z,18.25
2019-05-10T13:20:15.699Z,18.27
2019-05-10T13:21:21.053Z,18.27
2019-05-10T13:22:15.665Z,18.25
2019-05-10T13:23:16.086Z,18.25
2019-05-10T13:24:14.651Z,18.25
2019-05-10T13:25:14.652Z,18.26
2019-05-10T13:26:14.624Z,18.23
2019-05-10T13:27:14.615Z,18.21
2019-05-10T13:28:14.607Z,18.23
2019-05-10T13:29:14.647Z,18.30
2019-05-10T13:30:14.617Z,18.29
2019-05-10T13:31:15.289Z,18.39
2019-05-10T13:32:20.118Z,18.37
2019-05-10T13:33:27.867Z,18.37
2019-05-10T13:34:15.540Z,18.44
2019-05-10T13:35:14.534Z,18.44
2019-05-10T13:36:14.692Z,18.62
2019-05-10T13:37:23.241Z,18.60
2019-05-10T13:38:15.489Z,18.67
2019-05-10T13:39:19.232Z,18.66
2019-05-10T13:40:15.454Z,18.81
2019-05-10T13:41:17.793Z,18.88
2019-05-10T13:42:15.531Z,19.04
2019-05-10T13:43:16.697Z,19.04
2019-05-10T13:44:15.422Z,19.10
2019-05-10T13:45:14.410Z,19.18
2019-05-10T13:46:14.396Z,19.16
2019-05-10T13:47:14.452Z,19.23
2019-05-10T13:48:14.374Z,19.14
2019-05-10T13:49:14.379Z,19.13
2019-05-10T13:50:14.558Z,19.11
2019-05-10T13:51:14.368Z,19.22
2019-05-10T13:52:14.384Z,19.32
2019-05-10T13:53:21.338Z,19.33
2019-05-10T13:54:15.409Z,19.36
2019-05-10T13:55:14.307Z,19.54
2019-05-10T13:56:14.290Z,19.63
2019-05-10T13:57:14.290Z,19.69
2019-05-10T13:58:14.276Z,19.73
2019-05-10T13:59:16.414Z,19.77
2019-05-10T14:00:14.579Z,19.80
2019-05-10T14:01:14.851Z,19.87
2019-05-10T14:02:14.214Z,19.87
2019-05-10T14:03:16.705Z,19.96
2019-05-10T14:04:14.194Z,20.05
2019-05-10T14:05:17.584Z,20.13
2019-05-10T14:06:15.172Z,20.13
2019-05-10T14:07:14.160Z,20.23
2019-05-10T14:08:14.184Z,20.23
2019-05-10T14:09:14.149Z,20.20
2019-05-10T14:10:18.240Z,20.26
2019-05-10T14:11:15.119Z,20.18
2019-05-10T14:12:16.183Z,20.05
2019-05-10T14:13:16.896Z,20.03
2019-05-10T14:14:14.629Z,19.95
2019-05-10T14:15:15.154Z,20.02
2019-05-10T14:16:19.507Z,20.02
2019-05-10T14:17:15.050Z,20.05
2019-05-10T14:18:14.049Z,20.05
2019-05-10T14:19:15.887Z,20.01
2019-05-10T14:20:30.360Z,20.02
2019-05-10T14:21:15.010Z,20.08
2019-05-10T14:22:14.014Z,20.05
2019-05-10T14:23:17.562Z,20.05
2019-05-10T14:24:15.088Z,19.92
2019-05-10T14:25:13.971Z,19.91
2019-05-10T14:26:15.878Z,19.86
2019-05-10T14:27:13.939Z,19.78
2019-05-10T14:28:15.597Z,19.87
2019-05-10T14:29:13.917Z,19.59
2019-05-10T14:30:16.078Z,19.51
2019-05-10T14:31:13.896Z,19.46
2019-05-10T14:32:13.920Z,19.41
2019-05-10T14:33:14.764Z,19.41
2019-05-10T14:34:15.604Z,19.41
2019-05-10T14:35:16.421Z,19.39
2019-05-10T14:36:14.867Z,19.47
2019-05-10T14:37:19.205Z,19.47
2019-05-10T14:38:14.813Z,19.48
2019-05-10T14:39:13.812Z,19.62
2019-05-10T14:40:17.030Z,19.59
2019-05-10T14:41:14.793Z,19.58
2019-05-10T14:42:13.773Z,19.54
2019-05-10T14:43:13.765Z,19.50
2019-05-10T14:44:13.749Z,19.59
2019-05-10T14:45:13.832Z,19.51
2019-05-10T14:46:14.129Z,19.54
2019-05-10T14:47:13.846Z,19.51
2019-05-10T14:48:13.710Z,19.56
2019-05-10T14:49:13.700Z,19.73
2019-05-10T14:50:19.477Z,19.66
2019-05-10T14:51:14.780Z,19.80
2019-05-10T14:52:13.661Z,19.94
2019-05-10T14:53:13.649Z,19.88
2019-05-10T14:54:13.691Z,20.02
2019-05-10T14:55:13.729Z,20.05
2019-05-10T14:56:15.223Z,20.01
2019-05-10T14:57:13.606Z,20.02
2019-05-10T14:58:13.779Z,19.94
2019-05-10T14:59:13.581Z,19.88
2019-05-10T15:00:13.648Z,19.86
2019-05-10T15:01:13.570Z,19.80
2019-05-10T15:02:16.947Z,19.73
2019-05-10T15:03:14.549Z,19.66
2019-05-10T15:04:20.293Z,19.62
2019-05-10T15:05:18.025Z,19.50
2019-05-10T15:06:13.507Z,19.37
2019-05-10T15:07:14.261Z,19.41
2019-05-10T15:08:13.507Z,19.37
2019-05-10T15:09:22.085Z,19.43
2019-05-10T15:10:14.462Z,19.39
2019-05-10T15:11:13.446Z,19.44
2019-05-10T15:12:15.893Z,19.39
2019-05-10T15:13:19.801Z,19.51
2019-05-10T15:14:14.454Z,19.39
2019-05-10T15:15:13.399Z,19.36
2019-05-10T15:16:26.088Z,19.31
2019-05-10T15:17:14.377Z,19.21
2019-05-10T15:18:13.384Z,19.21
2019-05-10T15:19:13.372Z,19.16
2019-05-10T15:20:13.346Z,19.06
2019-05-10T15:21:13.346Z,19.04
2019-05-10T15:22:18.443Z,18.95
2019-05-10T15:23:14.319Z,19.00
2019-05-10T15:24:13.313Z,18.91
2019-05-10T15:25:13.300Z,18.84
2019-05-10T15:26:13.362Z,18.41
2019-05-10T15:27:16.129Z,18.05
2019-05-10T15:28:14.385Z,17.62
2019-05-10T15:29:14.776Z,17.48
2019-05-10T15:30:14.250Z,17.26
2019-05-10T15:31:13.241Z,17.12
2019-05-10T15:32:13.244Z,17.31
2019-05-10T15:33:13.302Z,17.01
2019-05-10T15:34:13.193Z,16.89
2019-05-10T15:35:13.175Z,16.75
2019-05-10T15:36:13.182Z,16.76
2019-05-10T15:37:13.164Z,16.73
2019-05-10T15:38:13.168Z,16.61
2019-05-10T15:39:13.134Z,16.66
2019-05-10T15:40:13.122Z,16.57
2019-05-10T15:41:16.884Z,16.57
2019-05-10T15:42:14.146Z,16.66
2019-05-10T15:43:17.359Z,16.73
2019-05-10T15:44:14.084Z,16.66
2019-05-10T15:45:14.665Z,16.58
2019-05-10T15:46:13.054Z,16.58
2019-05-10T15:47:20.419Z,16.67
2019-05-10T15:48:14.032Z,16.73
2019-05-10T15:49:13.604Z,16.83
2019-05-10T15:50:14.013Z,16.83
2019-05-10T15:51:16.937Z,16.85
2019-05-10T15:52:18.081Z,16.75
2019-05-10T15:53:12.991Z,16.70
2019-05-10T15:54:12.988Z,16.48
2019-05-10T15:55:16.465Z,16.39
2019-05-10T15:56:13.945Z,16.25
2019-05-10T15:57:14.593Z,16.12
2019-05-10T15:58:13.944Z,16.02
2019-05-10T15:59:18.770Z,16.04
2019-05-10T16:00:14.032Z,15.92
2019-05-10T16:01:14.415Z,15.78
2019-05-10T16:02:12.877Z,15.62
2019-05-10T16:03:12.875Z,15.60
2019-05-10T16:04:12.964Z,15.54
2019-05-10T16:05:24.089Z,15.56
2019-05-10T16:06:13.939Z,15.44
2019-05-10T16:07:14.547Z,15.49
2019-05-10T16:08:13.706Z,15.51
2019-05-10T16:09:17.491Z,15.51
2019-05-10T16:10:13.783Z,15.56
2019-05-10T16:11:18.888Z,15.60
2019-05-10T16:12:13.761Z,15.69
2019-05-10T16:13:14.509Z,15.71
2019-05-10T16:14:13.743Z,15.80
2019-05-10T16:15:19.342Z,15.74
2019-05-10T16:16:13.714Z,15.80
2019-05-10T16:17:17.585Z,15.89
2019-05-10T16:18:13.695Z,15.87
2019-05-10T16:19:17.931Z,15.83
2019-05-10T16:20:13.680Z,15.80
2019-05-10T16:21:15.133Z,15.94
2019-05-10T16:22:12.646Z,16.05
2019-05-10T16:23:12.647Z,16.14
2019-05-10T16:24:13.640Z,16.20
2019-05-10T16:25:12.615Z,16.14
2019-05-10T16:26:17.397Z,16.25
2019-05-10T16:27:13.594Z,16.20
2019-05-10T16:28:15.366Z,16.15
2019-05-10T16:29:13.579Z,16.04
2019-05-10T16:30:17.859Z,16.02
2019-05-10T16:31:13.549Z,15.97
2019-05-10T16:32:12.533Z,15.87
2019-05-10T16:33:15.740Z,15.83
2019-05-10T16:34:12.525Z,15.74
2019-05-10T16:35:14.542Z,15.69
2019-05-10T16:36:12.493Z,15.74
2019-05-10T16:37:12.497Z,15.57
2019-05-10T16:38:12.501Z,15.62
2019-05-10T16:39:12.491Z,15.59
2019-05-10T16:40:12.451Z,15.49
2019-05-10T16:41:12.478Z,15.39
2019-05-10T16:42:12.429Z,15.29
2019-05-10T16:43:13.995Z,15.32
2019-05-10T16:44:12.435Z,15.19
2019-05-10T16:45:12.405Z,15.14
2019-05-10T16:46:12.455Z,15.13
2019-05-10T16:47:12.382Z,15.11
2019-05-10T16:48:12.362Z,15.07
2019-05-10T16:49:15.497Z,15.01
2019-05-10T16:50:12.372Z,15.14
2019-05-10T16:51:12.713Z,15.02
2019-05-10T16:52:12.492Z,15.13
2019-05-10T16:53:12.302Z,15.09
2019-05-10T16:54:13.582Z,15.25
2019-05-10T16:55:12.291Z,15.23
2019-05-10T16:56:13.415Z,15.25
2019-05-10T16:57:13.271Z,15.29
2019-05-10T16:58:15.287Z,15.25
2019-05-10T16:59:13.347Z,15.34
2019-05-10T17:00:12.222Z,15.32
2019-05-10T17:01:12.336Z,15.23
2019-05-10T17:02:12.211Z,15.21
2019-05-10T17:03:13.230Z,15.17
2019-05-10T17:04:13.338Z,15.10
2019-05-10T17:05:15.090Z,15.16
2019-05-10T17:06:12.162Z,15.07
2019-05-10T17:07:18.139Z,15.07
2019-05-10T17:08:13.131Z,15.03
2019-05-10T17:09:18.348Z,14.95
2019-05-10T17:10:13.113Z,14.77
2019-05-10T17:11:12.109Z,14.86
2019-05-10T17:12:12.100Z,14.75
2019-05-10T17:13:12.087Z,14.77
2019-05-10T17:14:12.566Z,14.75
2019-05-10T17:15:13.065Z,14.65
2019-05-10T17:16:17.210Z,14.75
2019-05-10T17:17:13.087Z,14.65
2019-05-10T17:18:17.167Z,14.64
2019-05-10T17:19:13.084Z,14.61
2019-05-10T17:20:14.789Z,14.55
2019-05-10T17:21:11.995Z,14.54
2019-05-10T17:22:11.984Z,14.54
2019-05-10T17:23:11.969Z,14.54
2019-05-10T17:24:11.963Z,14.45
2019-05-10T17:25:11.951Z,14.46
2019-05-10T17:26:11.973Z,14.40
2019-05-10T17:27:11.936Z,14.45
2019-05-10T17:28:11.919Z,14.42
2019-05-10T17:29:12.481Z,14.47
2019-05-10T17:30:11.892Z,14.58
2019-05-10T17:31:11.920Z,14.55
2019-05-10T17:32:11.924Z,14.57
2019-05-10T17:33:11.984Z,14.61
2019-05-10T17:34:22.146Z,14.68
2019-05-10T17:35:12.835Z,14.68
2019-05-10T17:36:14.554Z,14.68
2019-05-10T17:37:12.848Z,14.68
2019-05-10T17:38:14.052Z,14.77
2019-05-10T17:39:11.792Z,14.78
2019-05-10T17:40:12.289Z,14.84
2019-05-10T17:41:11.775Z,14.89
2019-05-10T17:42:11.758Z,14.91
2019-05-10T17:43:14.162Z,14.89
2019-05-10T17:44:17.494Z,14.92
2019-05-10T17:45:12.737Z,14.88
2019-05-10T17:46:12.676Z,14.96
2019-05-10T17:47:12.802Z,14.94
2019-05-10T17:48:11.828Z,14.91
2019-05-10T17:49:11.697Z,14.80
2019-05-10T17:50:11.795Z,14.75
2019-05-10T17:51:11.711Z,14.75
2019-05-10T17:52:11.703Z,14.78
2019-05-10T17:53:11.637Z,14.70
2019-05-10T17:54:11.621Z,14.69
2019-05-10T17:55:16.880Z,14.58
2019-05-10T17:56:12.600Z,14.55
2019-05-10T17:57:16.734Z,14.57
2019-05-10T17:58:12.574Z,14.46
2019-05-10T17:59:13.771Z,14.42
2019-05-10T18:00:11.563Z,14.45
2019-05-10T18:01:11.541Z,14.40
2019-05-10T18:02:11.557Z,14.39
2019-05-10T18:03:11.529Z,14.39
2019-05-10T18:04:11.507Z,14.35
2019-05-10T18:05:11.501Z,14.36
2019-05-10T18:06:22.936Z,14.21
2019-05-10T18:07:12.475Z,14.22
2019-05-10T18:08:11.467Z,14.15
2019-05-10T18:09:11.499Z,14.03
2019-05-10T18:10:11.445Z,13.97
2019-05-10T18:11:11.573Z,13.99
2019-05-10T18:12:15.657Z,13.97
2019-05-10T18:13:12.411Z,13.97
2019-05-10T18:14:12.463Z,13.95
2019-05-10T18:15:12.390Z,13.92
2019-05-10T18:16:11.376Z,13.91
2019-05-10T18:17:11.405Z,13.84
2019-05-10T18:18:11.349Z,13.81
2019-05-10T18:19:11.336Z,13.88
2019-05-10T18:20:11.328Z,13.82
2019-05-10T18:21:15.973Z,13.79
2019-05-10T18:22:12.305Z,13.77
2019-05-10T18:23:20.115Z,13.78
2019-05-10T18:24:12.297Z,13.78
2019-05-10T18:25:19.558Z,13.70
2019-05-10T18:26:12.258Z,13.73
2019-05-10T18:27:11.263Z,13.66
2019-05-10T18:28:11.262Z,13.62
2019-05-10T18:29:11.224Z,13.60
2019-05-10T18:30:11.225Z,13.57
2019-05-10T18:31:11.309Z,13.54
2019-05-10T18:32:11.327Z,13.54
2019-05-10T18:33:12.281Z,13.57
2019-05-10T18:34:11.180Z,13.42
2019-05-10T18:35:14.434Z,13.41
2019-05-10T18:36:12.149Z,13.42
2019-05-10T18:37:15.760Z,13.42
2019-05-10T18:38:12.138Z,13.39
2019-05-10T18:39:15.525Z,13.23
2019-05-10T18:40:12.099Z,13.28
2019-05-10T18:41:11.825Z,13.36
2019-05-10T18:42:11.080Z,13.29
2019-05-10T18:43:11.074Z,13.30
2019-05-10T18:44:14.323Z,13.14
2019-05-10T18:45:11.044Z,13.14
2019-05-10T18:46:11.035Z,13.12
2019-05-10T18:47:11.024Z,13.04
2019-05-10T18:48:11.040Z,13.00
2019-05-10T18:49:11.012Z,12.97
2019-05-10T18:50:10.988Z,13.03
2019-05-10T18:51:11.000Z,13.00
2019-05-10T18:52:11.020Z,12.96
2019-05-10T18:53:11.045Z,12.96
2019-05-10T18:54:10.961Z,12.93
2019-05-10T18:55:10.930Z,13.00
2019-05-10T18:56:10.937Z,12.90
2019-05-10T18:57:15.554Z,12.93
2019-05-10T18:58:11.917Z,12.95
2019-05-10T18:59:10.895Z,12.87
2019-05-10T19:00:10.946Z,12.87
2019-05-10T19:01:10.870Z,12.83
2019-05-10T19:02:11.724Z,12.87
2019-05-10T19:03:11.841Z,12.83
2019-05-10T19:04:14.234Z,12.82
2019-05-10T19:05:13.421Z,12.87
2019-05-10T19:06:13.060Z,12.79
2019-05-10T19:07:10.806Z,12.72
2019-05-10T19:08:10.795Z,12.72
2019-05-10T19:09:10.779Z,12.77
2019-05-10T19:10:10.771Z,12.68
2019-05-10T19:11:10.797Z,12.64
2019-05-10T19:12:18.005Z,12.57
2019-05-10T19:13:12.017Z,12.65
2019-05-10T19:14:10.758Z,12.62
2019-05-10T19:15:15.400Z,12.64
2019-05-10T19:16:11.734Z,12.64
2019-05-10T19:17:11.133Z,12.64
2019-05-10T19:18:10.696Z,12.60
2019-05-10T19:19:10.674Z,12.57
2019-05-10T19:20:16.013Z,12.54
2019-05-10T19:21:11.648Z,12.56
2019-05-10T19:22:10.639Z,12.54
2019-05-10T19:23:13.068Z,12.52
2019-05-10T19:24:11.617Z,12.47
2019-05-10T19:25:12.143Z,12.52
2019-05-10T19:26:10.593Z,12.50
2019-05-10T19:27:10.579Z,12.47
2019-05-10T19:28:10.567Z,12.54
2019-05-10T19:29:10.558Z,12.45
2019-05-10T19:30:10.565Z,12.42
2019-05-10T19:31:10.613Z,12.46
2019-05-10T19:32:17.904Z,12.41
2019-05-10T19:33:11.551Z,12.42
2019-05-10T19:34:15.207Z,12.42
2019-05-10T19:35:11.510Z,12.38
2019-05-10T19:36:13.162Z,12.46
2019-05-10T19:37:10.476Z,12.39
2019-05-10T19:38:10.481Z,12.31
2019-05-10T19:39:10.459Z,12.35
2019-05-10T19:40:10.494Z,12.32
2019-05-10T19:41:10.423Z,12.37
2019-05-10T19:42:10.427Z,12.35
2019-05-10T19:43:15.270Z,12.42
2019-05-10T19:44:11.416Z,12.32
2019-05-10T19:45:12.813Z,12.31
2019-05-10T19:46:11.566Z,12.29
2019-05-10T19:47:11.170Z,12.27
2019-05-10T19:48:11.354Z,12.27
2019-05-10T19:49:13.118Z,12.32
2019-05-10T19:50:11.332Z,12.27
2019-05-10T19:51:11.601Z,12.27
2019-05-10T19:52:10.316Z,12.19
2019-05-10T19:53:10.292Z,12.24
2019-05-10T19:54:13.629Z,12.19
2019-05-10T19:55:13.099Z,12.20
2019-05-10T19:56:11.352Z,12.14
2019-05-10T19:57:16.181Z,12.13
2019-05-10T19:58:11.325Z,12.04
2019-05-10T19:59:11.886Z,12.20
2019-05-10T20:00:10.213Z,12.05
2019-05-10T20:01:10.220Z,12.09
2019-05-10T20:02:10.193Z,12.17
2019-05-10T20:03:10.178Z,12.09
2019-05-10T20:04:10.200Z,12.10
2019-05-10T20:05:10.166Z,12.10
2019-05-10T20:06:10.190Z,12.04
2019-05-10T20:07:10.149Z,12.10
2019-05-10T20:08:10.128Z,12.14
2019-05-10T20:09:10.298Z,11.99
2019-05-10T20:10:10.103Z,12.05
2019-05-10T20:11:10.108Z,12.10
2019-05-10T20:12:10.100Z,11.98
2019-05-10T20:13:10.729Z,12.01
2019-05-10T20:14:10.066Z,11.98
2019-05-10T20:15:10.062Z,11.99
2019-05-10T20:16:10.049Z,11.94
2019-05-10T20:17:10.037Z,11.94
2019-05-10T20:18:10.202Z,11.98
2019-05-10T20:19:10.143Z,11.95
2019-05-10T20:20:10.015Z,11.94
2019-05-10T20:21:10.013Z,11.96
2019-05-10T20:22:09.976Z,12.01
2019-05-10T20:23:09.974Z,11.98
2019-05-10T20:24:09.952Z,11.95
2019-05-10T20:25:09.998Z,11.91
2019-05-10T20:26:09.937Z,11.91
2019-05-10T20:27:09.918Z,11.98
2019-05-10T20:28:09.983Z,11.98
2019-05-10T20:29:09.905Z,11.96
2019-05-10T20:30:09.907Z,11.99
2019-05-10T20:31:09.875Z,11.91
2019-05-10T20:32:09.931Z,11.91
2019-05-10T20:33:09.858Z,11.91
2019-05-10T20:34:09.841Z,11.80
2019-05-10T20:35:09.854Z,11.88
2019-05-10T20:36:09.862Z,11.88
2019-05-10T20:37:09.822Z,11.95
2019-05-10T20:38:09.836Z,11.83
2019-05-10T20:39:09.804Z,11.86
2019-05-10T20:40:09.887Z,11.82
2019-05-10T20:41:09.771Z,11.85
2019-05-10T20:42:10.603Z,11.79
2019-05-10T20:43:09.745Z,11.76
2019-05-10T20:44:09.735Z,11.70
2019-05-10T20:45:09.717Z,11.70
2019-05-10T20:46:11.463Z,11.73
2019-05-10T20:47:09.721Z,11.75
2019-05-10T20:48:09.698Z,11.72
2019-05-10T20:49:09.736Z,11.67
2019-05-10T20:50:09.677Z,11.65
2019-05-10T20:51:09.658Z,11.64
2019-05-10T20:52:09.669Z,11.67
2019-05-10T20:53:09.655Z,11.69
2019-05-10T20:54:09.627Z,11.70
2019-05-10T20:55:09.613Z,11.64
2019-05-10T20:56:09.605Z,11.73
2019-05-10T20:57:09.733Z,11.62
2019-05-10T20:58:09.596Z,11.69
2019-05-10T20:59:09.576Z,11.61
2019-05-10T21:00:09.586Z,11.65
2019-05-10T21:01:09.554Z,11.64
2019-05-10T21:02:09.546Z,11.64
2019-05-10T21:03:09.564Z,11.69
2019-05-10T21:04:09.507Z,11.60
2019-05-10T21:05:09.502Z,11.60
2019-05-10T21:06:09.505Z,11.57
2019-05-10T21:07:09.478Z,11.54
2019-05-10T21:08:16.895Z,11.58
2019-05-10T21:09:10.486Z,11.60
2019-05-10T21:10:09.457Z,11.54
2019-05-10T21:11:09.434Z,11.60
2019-05-10T21:12:09.419Z,11.54
2019-05-10T21:13:09.411Z,11.52
2019-05-10T21:14:09.397Z,11.57
2019-05-10T21:15:09.392Z,11.43
2019-05-10T21:16:09.379Z,11.43
2019-05-10T21:17:09.483Z,11.33
2019-05-10T21:18:09.368Z,11.35
2019-05-10T21:19:09.358Z,11.37
2019-05-10T21:20:09.333Z,11.29
2019-05-10T21:21:09.318Z,11.33
2019-05-10T21:22:09.329Z,11.33
2019-05-10T21:23:09.339Z,11.29
2019-05-10T21:24:09.288Z,11.28
2019-05-10T21:25:09.410Z,11.24
2019-05-10T21:26:09.269Z,11.28
2019-05-10T21:27:09.255Z,11.28
2019-05-10T21:28:09.244Z,11.28
2019-05-10T21:29:09.239Z,11.32
2019-05-10T21:30:09.222Z,11.25
2019-05-10T21:31:09.218Z,11.17
2019-05-10T21:32:09.216Z,11.24
2019-05-10T21:33:09.202Z,11.25
2019-05-10T21:34:10.234Z,11.14
2019-05-10T21:35:09.224Z,11.14
2019-05-10T21:36:09.152Z,11.15
2019-05-10T21:37:09.144Z,11.15
2019-05-10T21:38:09.226Z,11.19
2019-05-10T21:39:09.153Z,11.15
2019-05-10T21:40:09.126Z,11.11
2019-05-10T21:41:09.109Z,11.15
2019-05-10T21:42:09.158Z,11.24
2019-05-10T21:43:09.077Z,11.09
2019-05-10T21:44:09.065Z,11.11
2019-05-10T21:45:09.069Z,11.19
2019-05-10T21:46:09.054Z,11.15
2019-05-10T21:47:09.049Z,11.07
2019-05-10T21:48:09.022Z,11.15
2019-05-10T21:49:09.012Z,11.17
2019-05-10T21:50:09.088Z,11.09
2019-05-10T21:51:08.995Z,11.11
2019-05-10T21:52:08.991Z,11.07
2019-05-10T21:53:08.970Z,11.03
2019-05-10T21:54:08.960Z,11.04
2019-05-10T21:55:08.949Z,11.00
2019-05-10T21:56:08.958Z,11.07
2019-05-10T21:57:08.936Z,11.06
2019-05-10T21:58:08.934Z,11.02
2019-05-10T21:59:08.897Z,10.96
2019-05-10T22:00:08.922Z,10.92
2019-05-10T22:01:08.884Z,10.88
2019-05-10T22:02:08.882Z,10.91
2019-05-10T22:03:08.888Z,10.94
2019-05-10T22:04:08.861Z,10.94
2019-05-10T22:05:08.835Z,10.86
2019-05-10T22:06:08.819Z,10.86
2019-05-10T22:07:08.844Z,10.91
2019-05-10T22:08:08.824Z,10.88
2019-05-10T22:09:09.747Z,10.86
2019-05-10T22:10:08.772Z,10.94
2019-05-10T22:11:08.780Z,10.96
2019-05-10T22:12:08.754Z,10.97
2019-05-10T22:13:08.746Z,10.94
2019-05-10T22:14:08.821Z,10.97
2019-05-10T22:15:08.780Z,10.91
2019-05-10T22:16:08.710Z,10.94
2019-05-10T22:17:08.703Z,10.89
2019-05-10T22:18:08.688Z,10.94
2019-05-10T22:19:08.689Z,10.92
2019-05-10T22:20:08.669Z,10.86
2019-05-10T22:21:08.700Z,10.84
2019-05-10T22:22:08.646Z,10.82
2019-05-10T22:23:08.641Z,10.82
2019-05-10T22:24:08.630Z,10.81
2019-05-10T22:25:08.612Z,10.81
2019-05-10T22:26:08.605Z,10.76
2019-05-10T22:27:08.587Z,10.81
2019-05-10T22:28:08.573Z,10.67
2019-05-10T22:29:08.564Z,10.70
2019-05-10T22:30:11.984Z,10.74
2019-05-10T22:31:08.568Z,10.67
2019-05-10T22:32:08.561Z,10.63
2019-05-10T22:33:08.519Z,10.63
2019-05-10T22:34:08.512Z,10.60
2019-05-10T22:35:08.543Z,10.56
2019-05-10T22:36:08.498Z,10.56
2019-05-10T22:37:08.479Z,10.64
2019-05-10T22:38:08.467Z,10.60
2019-05-10T22:39:08.460Z,10.53
2019-05-10T22:40:08.455Z,10.53
2019-05-10T22:41:08.430Z,10.55
2019-05-10T22:42:08.426Z,10.48
2019-05-10T22:43:08.419Z,10.48
2019-05-10T22:44:08.397Z,10.55
2019-05-10T22:45:08.389Z,10.42
2019-05-10T22:46:08.381Z,10.55
2019-05-10T22:47:08.370Z,10.47
2019-05-10T22:48:08.359Z,10.51
2019-05-10T22:49:08.343Z,10.51
2019-05-10T22:50:08.384Z,10.47
2019-05-10T22:51:15.309Z,10.44
2019-05-10T22:52:08.334Z,10.42
2019-05-10T22:53:08.306Z,10.40
2019-05-10T22:54:08.479Z,10.42
2019-05-10T22:55:08.403Z,10.41
2019-05-10T22:56:08.310Z,10.41
2019-05-10T22:57:08.286Z,10.38
2019-05-10T22:58:08.654Z,10.42
2019-05-10T22:59:08.513Z,10.47
2019-05-10T23:00:08.227Z,10.44
2019-05-10T23:01:08.252Z,10.55
2019-05-10T23:02:08.200Z,10.40
2019-05-10T23:03:08.374Z,10.45
2019-05-10T23:04:08.175Z,10.52
2019-05-10T23:05:08.266Z,10.48
2019-05-10T23:06:08.149Z,10.55
2019-05-10T23:07:08.140Z,10.55
2019-05-10T23:08:08.128Z,10.53
2019-05-10T23:09:23.622Z,10.56
2019-05-10T23:10:09.140Z,10.61
2019-05-10T23:11:08.104Z,10.60
2019-05-10T23:12:08.087Z,10.60
2019-05-10T23:13:08.074Z,10.53
2019-05-10T23:14:08.065Z,10.61
2019-05-10T23:15:08.073Z,10.63
2019-05-10T23:16:08.098Z,10.70
2019-05-10T23:17:08.070Z,10.66
2019-05-10T23:18:08.023Z,10.76
2019-05-10T23:19:08.006Z,10.76
2019-05-10T23:20:08.006Z,10.78
2019-05-10T23:21:08.042Z,10.73
2019-05-10T23:22:07.986Z,10.70
2019-05-10T23:23:07.968Z,10.67
2019-05-10T23:24:07.968Z,10.68
2019-05-10T23:25:07.956Z,10.68
2019-05-10T23:26:08.634Z,10.73
2019-05-10T23:27:07.941Z,10.78
2019-05-10T23:28:07.918Z,10.74
2019-05-10T23:29:07.899Z,10.70
2019-05-10T23:30:07.964Z,10.76
2019-05-10T23:31:07.882Z,10.76
2019-05-10T23:32:07.868Z,10.76
2019-05-10T23:33:07.858Z,10.73
2019-05-10T23:34:07.859Z,10.79
2019-05-10T23:35:07.828Z,10.78
2019-05-10T23:36:07.890Z,10.73
2019-05-10T23:37:07.830Z,10.81
2019-05-10T23:38:07.792Z,10.78
2019-05-10T23:39:07.825Z,10.82
2019-05-10T23:40:07.803Z,10.78
2019-05-10T23:41:07.764Z,10.76
2019-05-10T23:42:07.784Z,10.73
2019-05-10T23:43:07.766Z,10.81
2019-05-10T23:44:07.746Z,10.76
2019-05-10T23:45:07.738Z,10.89
2019-05-10T23:46:07.746Z,10.89
2019-05-10T23:47:07.696Z,10.92
2019-05-10T23:48:07.687Z,10.86
2019-05-10T23:49:07.680Z,10.91
2019-05-10T23:50:07.663Z,10.91
2019-05-10T23:51:07.666Z,10.97
2019-05-10T23:52:07.802Z,10.91
2019-05-10T23:53:07.652Z,10.94
2019-05-10T23:54:07.676Z,10.91
2019-05-10T23:55:07.606Z,10.89
2019-05-10T23:56:07.607Z,10.91
2019-05-10T23:57:07.587Z,10.91
2019-05-10T23:58:07.573Z,10.96
2019-05-10T23:59:08.202Z,10.92
